sensor_id;sensor_type;location;lat;lon;timestamp;P1;durP1;ratioP1;P2;durP2;ratioP2
46222;SDS011;31943;51.410;7.564;2023-03-23T00:00:18;4.53;;;1.65;;
46222;SDS011;31943;51.410;7.564;2023-03-23T00:02:45;4.80;;;1.50;;
46222;SDS011;31943;51.410;7.564;2023-03-23T00:05:11;6.03;;;1.63;;
46222;SDS011;31943;51.410;7.564;2023-03-23T00:07:37;3.75;;;1.95;;
46222;SDS011;31943;51.410;7.564;2023-03-23T00:10:05;3.72;;;1.80;;
46222;SDS011;31943;51.410;7.564;2023-03-23T00:12:38;2.70;;;1.40;;
46222;SDS011;31943;51.410;7.564;2023-03-23T00:15:07;4.65;;;1.48;;
46222;SDS011;31943;51.410;7.564;2023-03-23T00:17:34;2.30;;;1.45;;
46222;SDS011;31943;51.410;7.564;2023-03-23T00:20:01;2.72;;;1.83;;
46222;SDS011;31943;51.410;7.564;2023-03-23T00:22:28;4.03;;;1.98;;
46222;SDS011;31943;51.410;7.564;2023-03-23T00:24:54;6.25;;;2.00;;
46222;SDS011;31943;51.410;7.564;2023-03-23T00:27:20;2.42;;;1.67;;
46222;SDS011;31943;51.410;7.564;2023-03-23T00:29:49;2.97;;;1.75;;
46222;SDS011;31943;51.410;7.564;2023-03-23T00:32:16;5.65;;;2.10;;
46222;SDS011;31943;51.410;7.564;2023-03-23T00:34:43;2.95;;;1.90;;
46222;SDS011;31943;51.410;7.564;2023-03-23T00:37:15;3.35;;;1.55;;
46222;SDS011;31943;51.410;7.564;2023-03-23T00:39:40;4.13;;;1.85;;
46222;SDS011;31943;51.410;7.564;2023-03-23T00:42:06;4.50;;;1.80;;
46222;SDS011;31943;51.410;7.564;2023-03-23T00:44:32;4.10;;;1.88;;
46222;SDS011;31943;51.410;7.564;2023-03-23T00:47:02;3.60;;;1.50;;
46222;SDS011;31943;51.410;7.564;2023-03-23T00:49:28;2.97;;;1.73;;
46222;SDS011;31943;51.410;7.564;2023-03-23T00:51:56;4.25;;;1.55;;
46222;SDS011;31943;51.410;7.564;2023-03-23T00:54:26;3.85;;;1.75;;
46222;SDS011;31943;51.410;7.564;2023-03-23T00:56:52;4.00;;;1.75;;
46222;SDS011;31943;51.410;7.564;2023-03-23T00:59:18;3.10;;;1.77;;
46222;SDS011;31943;51.410;7.564;2023-03-23T01:01:44;2.58;;;1.60;;
46222;SDS011;31943;51.410;7.564;2023-03-23T01:04:12;2.83;;;1.70;;
46222;SDS011;31943;51.410;7.564;2023-03-23T01:06:42;2.65;;;1.65;;
46222;SDS011;31943;51.410;7.564;2023-03-23T01:09:28;3.25;;;1.70;;
46222;SDS011;31943;51.410;7.564;2023-03-23T01:11:58;2.83;;;1.80;;
46222;SDS011;31943;51.410;7.564;2023-03-23T01:14:24;2.15;;;1.60;;
46222;SDS011;31943;51.410;7.564;2023-03-23T01:16:50;4.03;;;1.50;;
46222;SDS011;31943;51.410;7.564;2023-03-23T01:19:22;4.93;;;1.50;;
46222;SDS011;31943;51.410;7.564;2023-03-23T01:21:48;5.72;;;1.50;;
46222;SDS011;31943;51.410;7.564;2023-03-23T01:24:15;2.63;;;1.38;;
46222;SDS011;31943;51.410;7.564;2023-03-23T01:26:41;2.65;;;1.30;;
46222;SDS011;31943;51.410;7.564;2023-03-23T01:29:06;2.88;;;1.48;;
46222;SDS011;31943;51.410;7.564;2023-03-23T01:31:32;3.42;;;1.45;;
46222;SDS011;31943;51.410;7.564;2023-03-23T01:33:58;3.50;;;1.60;;
46222;SDS011;31943;51.410;7.564;2023-03-23T01:36:27;2.63;;;1.40;;
46222;SDS011;31943;51.410;7.564;2023-03-23T01:38:55;4.28;;;1.58;;
46222;SDS011;31943;51.410;7.564;2023-03-23T01:41:21;2.75;;;1.13;;
46222;SDS011;31943;51.410;7.564;2023-03-23T01:43:55;4.20;;;1.70;;
46222;SDS011;31943;51.410;7.564;2023-03-23T01:46:25;2.70;;;1.25;;
46222;SDS011;31943;51.410;7.564;2023-03-23T01:48:54;2.38;;;1.35;;
46222;SDS011;31943;51.410;7.564;2023-03-23T01:51:22;2.97;;;1.58;;
46222;SDS011;31943;51.410;7.564;2023-03-23T01:53:52;3.30;;;1.42;;
46222;SDS011;31943;51.410;7.564;2023-03-23T01:56:21;2.20;;;1.50;;
46222;SDS011;31943;51.410;7.564;2023-03-23T01:58:53;2.65;;;1.27;;
46222;SDS011;31943;51.410;7.564;2023-03-23T02:01:21;2.95;;;1.60;;
46222;SDS011;31943;51.410;7.564;2023-03-23T02:03:47;3.17;;;1.58;;
46222;SDS011;31943;51.410;7.564;2023-03-23T02:06:14;2.30;;;1.45;;
46222;SDS011;31943;51.410;7.564;2023-03-23T02:08:41;5.20;;;1.40;;
46222;SDS011;31943;51.410;7.564;2023-03-23T02:11:14;3.13;;;1.67;;
46222;SDS011;31943;51.410;7.564;2023-03-23T02:13:40;2.85;;;1.65;;
46222;SDS011;31943;51.410;7.564;2023-03-23T02:16:09;3.45;;;1.50;;
46222;SDS011;31943;51.410;7.564;2023-03-23T02:18:45;1.95;;;1.30;;
46222;SDS011;31943;51.410;7.564;2023-03-23T02:27:31;1.77;;;1.30;;
46222;SDS011;31943;51.410;7.564;2023-03-23T02:30:14;2.60;;;1.30;;
46222;SDS011;31943;51.410;7.564;2023-03-23T02:33:09;3.90;;;1.70;;
46222;SDS011;31943;51.410;7.564;2023-03-23T02:35:52;2.40;;;1.27;;
46222;SDS011;31943;51.410;7.564;2023-03-23T02:38:28;1.83;;;1.15;;
46222;SDS011;31943;51.410;7.564;2023-03-23T02:43:26;5.32;;;1.70;;
46222;SDS011;31943;51.410;7.564;2023-03-23T02:45:56;4.22;;;1.83;;
46222;SDS011;31943;51.410;7.564;2023-03-23T02:48:27;2.53;;;1.17;;
46222;SDS011;31943;51.410;7.564;2023-03-23T02:50:55;2.70;;;1.45;;
46222;SDS011;31943;51.410;7.564;2023-03-23T02:53:23;2.65;;;1.50;;
46222;SDS011;31943;51.410;7.564;2023-03-23T02:55:55;3.05;;;1.60;;
46222;SDS011;31943;51.410;7.564;2023-03-23T02:58:22;1.98;;;1.27;;
46222;SDS011;31943;51.410;7.564;2023-03-23T03:00:48;1.75;;;1.27;;
46222;SDS011;31943;51.410;7.564;2023-03-23T03:03:15;2.65;;;1.67;;
46222;SDS011;31943;51.410;7.564;2023-03-23T03:05:49;1.40;;;1.30;;
46222;SDS011;31943;51.410;7.564;2023-03-23T03:08:28;3.72;;;1.60;;
46222;SDS011;31943;51.410;7.564;2023-03-23T03:11:04;2.78;;;1.58;;
46222;SDS011;31943;51.410;7.564;2023-03-23T03:13:35;2.33;;;1.50;;
46222;SDS011;31943;51.410;7.564;2023-03-23T03:16:22;1.92;;;1.55;;
46222;SDS011;31943;51.410;7.564;2023-03-23T03:18:56;4.00;;;1.65;;
46222;SDS011;31943;51.410;7.564;2023-03-23T03:21:29;1.95;;;1.75;;
46222;SDS011;31943;51.410;7.564;2023-03-23T03:23:58;2.42;;;1.67;;
46222;SDS011;31943;51.410;7.564;2023-03-23T03:26:26;2.53;;;1.70;;
46222;SDS011;31943;51.410;7.564;2023-03-23T03:28:55;1.80;;;1.60;;
46222;SDS011;31943;51.410;7.564;2023-03-23T03:31:28;3.78;;;1.55;;
46222;SDS011;31943;51.410;7.564;2023-03-23T03:33:58;3.03;;;1.52;;
46222;SDS011;31943;51.410;7.564;2023-03-23T03:36:25;1.83;;;1.38;;
46222;SDS011;31943;51.410;7.564;2023-03-23T03:38:55;2.03;;;1.20;;
46222;SDS011;31943;51.410;7.564;2023-03-23T03:41:23;2.55;;;1.55;;
46222;SDS011;31943;51.410;7.564;2023-03-23T03:43:48;2.03;;;1.40;;
46222;SDS011;31943;51.410;7.564;2023-03-23T03:46:14;3.22;;;1.52;;
46222;SDS011;31943;51.410;7.564;2023-03-23T03:48:40;3.58;;;1.58;;
46222;SDS011;31943;51.410;7.564;2023-03-23T03:51:06;2.60;;;1.60;;
46222;SDS011;31943;51.410;7.564;2023-03-23T03:53:34;1.85;;;1.40;;
46222;SDS011;31943;51.410;7.564;2023-03-23T03:56:01;3.97;;;1.65;;
46222;SDS011;31943;51.410;7.564;2023-03-23T03:58:27;1.95;;;1.30;;
46222;SDS011;31943;51.410;7.564;2023-03-23T04:00:53;2.00;;;1.33;;
46222;SDS011;31943;51.410;7.564;2023-03-23T04:03:18;2.50;;;1.42;;
46222;SDS011;31943;51.410;7.564;2023-03-23T04:05:44;3.13;;;1.20;;
46222;SDS011;31943;51.410;7.564;2023-03-23T04:08:13;2.17;;;1.10;;
46222;SDS011;31943;51.410;7.564;2023-03-23T04:10:40;2.60;;;1.20;;
46222;SDS011;31943;51.410;7.564;2023-03-23T04:13:06;3.45;;;1.63;;
46222;SDS011;31943;51.410;7.564;2023-03-23T04:15:31;3.13;;;1.30;;
46222;SDS011;31943;51.410;7.564;2023-03-23T04:17:59;3.05;;;1.25;;
46222;SDS011;31943;51.410;7.564;2023-03-23T04:20:24;1.60;;;1.10;;
46222;SDS011;31943;51.410;7.564;2023-03-23T04:22:50;1.98;;;1.10;;
46222;SDS011;31943;51.410;7.564;2023-03-23T04:25:18;1.85;;;1.15;;
46222;SDS011;31943;51.410;7.564;2023-03-23T04:27:47;2.00;;;1.20;;
46222;SDS011;31943;51.410;7.564;2023-03-23T04:30:13;2.15;;;1.30;;
46222;SDS011;31943;51.410;7.564;2023-03-23T04:32:41;2.25;;;1.42;;
46222;SDS011;31943;51.410;7.564;2023-03-23T04:35:08;1.90;;;1.20;;
46222;SDS011;31943;51.410;7.564;2023-03-23T04:37:34;1.05;;;0.80;;
46222;SDS011;31943;51.410;7.564;2023-03-23T04:40:01;1.52;;;1.13;;
46222;SDS011;31943;51.410;7.564;2023-03-23T04:42:28;1.50;;;0.90;;
46222;SDS011;31943;51.410;7.564;2023-03-23T04:44:58;2.13;;;1.20;;
46222;SDS011;31943;51.410;7.564;2023-03-23T04:47:24;1.40;;;1.20;;
46222;SDS011;31943;51.410;7.564;2023-03-23T04:49:51;1.23;;;1.10;;
46222;SDS011;31943;51.410;7.564;2023-03-23T04:52:17;1.40;;;0.93;;
46222;SDS011;31943;51.410;7.564;2023-03-23T04:54:44;1.92;;;1.20;;
46222;SDS011;31943;51.410;7.564;2023-03-23T04:57:09;1.77;;;1.20;;
46222;SDS011;31943;51.410;7.564;2023-03-23T04:59:36;1.73;;;1.33;;
46222;SDS011;31943;51.410;7.564;2023-03-23T05:02:05;1.85;;;1.23;;
46222;SDS011;31943;51.410;7.564;2023-03-23T05:04:31;3.20;;;1.20;;
46222;SDS011;31943;51.410;7.564;2023-03-23T05:06:57;1.45;;;1.20;;
46222;SDS011;31943;51.410;7.564;2023-03-23T05:09:23;1.60;;;1.15;;
46222;SDS011;31943;51.410;7.564;2023-03-23T05:14:40;1.90;;;1.10;;
46222;SDS011;31943;51.410;7.564;2023-03-23T05:17:08;1.70;;;1.40;;
46222;SDS011;31943;51.410;7.564;2023-03-23T05:19:34;1.48;;;0.98;;
46222;SDS011;31943;51.410;7.564;2023-03-23T05:22:05;2.83;;;1.27;;
46222;SDS011;31943;51.410;7.564;2023-03-23T05:24:30;2.28;;;1.20;;
46222;SDS011;31943;51.410;7.564;2023-03-23T05:26:57;1.70;;;1.30;;
46222;SDS011;31943;51.410;7.564;2023-03-23T05:29:24;1.90;;;1.33;;
46222;SDS011;31943;51.410;7.564;2023-03-23T05:31:51;1.60;;;1.05;;
46222;SDS011;31943;51.410;7.564;2023-03-23T05:34:22;1.50;;;1.00;;
46222;SDS011;31943;51.410;7.564;2023-03-23T05:36:50;2.13;;;1.40;;
46222;SDS011;31943;51.410;7.564;2023-03-23T05:39:15;2.33;;;1.33;;
46222;SDS011;31943;51.410;7.564;2023-03-23T05:41:44;2.78;;;1.30;;
46222;SDS011;31943;51.410;7.564;2023-03-23T05:44:11;1.58;;;1.15;;
46222;SDS011;31943;51.410;7.564;2023-03-23T05:46:40;2.97;;;1.40;;
46222;SDS011;31943;51.410;7.564;2023-03-23T05:49:06;3.38;;;1.30;;
46222;SDS011;31943;51.410;7.564;2023-03-23T05:51:36;4.43;;;1.20;;
46222;SDS011;31943;51.410;7.564;2023-03-23T05:54:02;2.35;;;1.33;;
46222;SDS011;31943;51.410;7.564;2023-03-23T05:56:28;2.20;;;1.40;;
46222;SDS011;31943;51.410;7.564;2023-03-23T05:58:54;1.77;;;1.20;;
46222;SDS011;31943;51.410;7.564;2023-03-23T06:01:20;1.10;;;1.00;;
46222;SDS011;31943;51.410;7.564;2023-03-23T06:03:47;1.92;;;1.15;;
46222;SDS011;31943;51.410;7.564;2023-03-23T06:06:14;1.92;;;1.35;;
46222;SDS011;31943;51.410;7.564;2023-03-23T06:08:41;1.50;;;1.13;;
46222;SDS011;31943;51.410;7.564;2023-03-23T06:11:07;1.88;;;1.25;;
46222;SDS011;31943;51.410;7.564;2023-03-23T06:13:32;2.00;;;1.38;;
46222;SDS011;31943;51.410;7.564;2023-03-23T06:15:59;1.95;;;1.30;;
46222;SDS011;31943;51.410;7.564;2023-03-23T06:18:25;2.20;;;1.20;;
46222;SDS011;31943;51.410;7.564;2023-03-23T06:20:51;2.25;;;1.30;;
46222;SDS011;31943;51.410;7.564;2023-03-23T06:23:18;1.63;;;1.08;;
46222;SDS011;31943;51.410;7.564;2023-03-23T06:25:46;4.25;;;1.40;;
46222;SDS011;31943;51.410;7.564;2023-03-23T06:28:12;2.20;;;1.05;;
46222;SDS011;31943;51.410;7.564;2023-03-23T06:30:39;2.05;;;1.08;;
46222;SDS011;31943;51.410;7.564;2023-03-23T06:33:06;1.70;;;1.45;;
46222;SDS011;31943;51.410;7.564;2023-03-23T06:35:32;2.85;;;1.35;;
46222;SDS011;31943;51.410;7.564;2023-03-23T06:37:58;3.22;;;1.20;;
46222;SDS011;31943;51.410;7.564;2023-03-23T06:40:23;1.80;;;1.40;;
46222;SDS011;31943;51.410;7.564;2023-03-23T06:42:51;3.45;;;1.63;;
46222;SDS011;31943;51.410;7.564;2023-03-23T06:45:16;1.73;;;1.20;;
46222;SDS011;31943;51.410;7.564;2023-03-23T06:47:42;3.00;;;1.52;;
46222;SDS011;31943;51.410;7.564;2023-03-23T06:50:08;2.13;;;1.25;;
46222;SDS011;31943;51.410;7.564;2023-03-23T06:52:34;2.95;;;1.50;;
46222;SDS011;31943;51.410;7.564;2023-03-23T06:54:59;1.75;;;1.30;;
46222;SDS011;31943;51.410;7.564;2023-03-23T06:57:25;3.60;;;1.63;;
46222;SDS011;31943;51.410;7.564;2023-03-23T06:59:52;3.28;;;1.50;;
46222;SDS011;31943;51.410;7.564;2023-03-23T07:02:18;2.35;;;1.15;;
46222;SDS011;31943;51.410;7.564;2023-03-23T07:04:44;3.92;;;1.20;;
46222;SDS011;31943;51.410;7.564;2023-03-23T07:07:20;2.58;;;1.23;;
46222;SDS011;31943;51.410;7.564;2023-03-23T07:09:46;2.85;;;1.30;;
46222;SDS011;31943;51.410;7.564;2023-03-23T07:12:12;2.47;;;1.58;;
46222;SDS011;31943;51.410;7.564;2023-03-23T07:14:38;2.00;;;1.30;;
46222;SDS011;31943;51.410;7.564;2023-03-23T07:17:06;4.75;;;1.30;;
46222;SDS011;31943;51.410;7.564;2023-03-23T07:19:33;4.25;;;1.80;;
46222;SDS011;31943;51.410;7.564;2023-03-23T07:21:59;1.80;;;1.20;;
46222;SDS011;31943;51.410;7.564;2023-03-23T07:24:25;3.33;;;1.42;;
46222;SDS011;31943;51.410;7.564;2023-03-23T07:26:52;2.05;;;1.23;;
46222;SDS011;31943;51.410;7.564;2023-03-23T07:29:17;2.50;;;1.40;;
46222;SDS011;31943;51.410;7.564;2023-03-23T07:31:43;3.47;;;1.58;;
46222;SDS011;31943;51.410;7.564;2023-03-23T07:34:11;2.70;;;1.48;;
46222;SDS011;31943;51.410;7.564;2023-03-23T07:36:38;2.83;;;1.40;;
46222;SDS011;31943;51.410;7.564;2023-03-23T07:39:03;3.78;;;1.55;;
46222;SDS011;31943;51.410;7.564;2023-03-23T07:41:29;3.85;;;1.33;;
46222;SDS011;31943;51.410;7.564;2023-03-23T07:43:55;3.35;;;1.40;;
46222;SDS011;31943;51.410;7.564;2023-03-23T07:46:21;6.10;;;1.65;;
46222;SDS011;31943;51.410;7.564;2023-03-23T07:48:48;6.22;;;1.35;;
46222;SDS011;31943;51.410;7.564;2023-03-23T07:51:15;2.83;;;1.27;;
46222;SDS011;31943;51.410;7.564;2023-03-23T07:53:41;3.70;;;1.05;;
46222;SDS011;31943;51.410;7.564;2023-03-23T07:56:07;3.30;;;1.40;;
46222;SDS011;31943;51.410;7.564;2023-03-23T07:58:34;3.45;;;1.27;;
46222;SDS011;31943;51.410;7.564;2023-03-23T08:01:01;1.55;;;1.17;;
46222;SDS011;31943;51.410;7.564;2023-03-23T08:03:27;3.45;;;1.20;;
46222;SDS011;31943;51.410;7.564;2023-03-23T08:05:56;3.47;;;1.42;;
46222;SDS011;31943;51.410;7.564;2023-03-23T08:08:24;3.72;;;1.40;;
46222;SDS011;31943;51.410;7.564;2023-03-23T08:10:54;4.32;;;1.30;;
46222;SDS011;31943;51.410;7.564;2023-03-23T08:13:20;3.55;;;1.40;;
46222;SDS011;31943;51.410;7.564;2023-03-23T08:15:47;1.92;;;1.20;;
46222;SDS011;31943;51.410;7.564;2023-03-23T08:18:13;3.42;;;1.50;;
46222;SDS011;31943;51.410;7.564;2023-03-23T08:20:39;2.53;;;1.30;;
46222;SDS011;31943;51.410;7.564;2023-03-23T08:23:04;2.58;;;1.30;;
46222;SDS011;31943;51.410;7.564;2023-03-23T08:25:32;4.30;;;1.13;;
46222;SDS011;31943;51.410;7.564;2023-03-23T08:27:59;2.75;;;1.50;;
46222;SDS011;31943;51.410;7.564;2023-03-23T08:30:25;3.30;;;1.33;;
46222;SDS011;31943;51.410;7.564;2023-03-23T08:32:52;3.42;;;1.27;;
46222;SDS011;31943;51.410;7.564;2023-03-23T08:35:18;2.30;;;1.10;;
46222;SDS011;31943;51.410;7.564;2023-03-23T08:37:46;3.47;;;1.02;;
46222;SDS011;31943;51.410;7.564;2023-03-23T08:40:12;3.88;;;1.35;;
46222;SDS011;31943;51.410;7.564;2023-03-23T08:42:41;3.08;;;1.45;;
46222;SDS011;31943;51.410;7.564;2023-03-23T08:45:08;5.60;;;1.45;;
46222;SDS011;31943;51.410;7.564;2023-03-23T08:47:36;3.05;;;1.40;;
46222;SDS011;31943;51.410;7.564;2023-03-23T08:50:02;3.60;;;1.20;;
46222;SDS011;31943;51.410;7.564;2023-03-23T08:52:28;2.78;;;1.02;;
46222;SDS011;31943;51.410;7.564;2023-03-23T08:54:54;3.25;;;1.17;;
46222;SDS011;31943;51.410;7.564;2023-03-23T08:57:20;3.35;;;1.30;;
46222;SDS011;31943;51.410;7.564;2023-03-23T08:59:47;2.17;;;1.00;;
46222;SDS011;31943;51.410;7.564;2023-03-23T09:02:13;3.80;;;1.13;;
46222;SDS011;31943;51.410;7.564;2023-03-23T09:04:39;2.22;;;1.20;;
46222;SDS011;31943;51.410;7.564;2023-03-23T09:07:05;3.17;;;0.98;;
46222;SDS011;31943;51.410;7.564;2023-03-23T09:09:31;3.97;;;1.33;;
46222;SDS011;31943;51.410;7.564;2023-03-23T09:11:57;2.63;;;1.10;;
46222;SDS011;31943;51.410;7.564;2023-03-23T09:14:23;4.85;;;1.10;;
46222;SDS011;31943;51.410;7.564;2023-03-23T09:16:50;4.30;;;1.27;;
46222;SDS011;31943;51.410;7.564;2023-03-23T09:19:16;4.13;;;1.25;;
46222;SDS011;31943;51.410;7.564;2023-03-23T09:21:42;3.25;;;1.42;;
46222;SDS011;31943;51.410;7.564;2023-03-23T09:24:07;3.22;;;1.35;;
46222;SDS011;31943;51.410;7.564;2023-03-23T09:26:34;2.45;;;1.10;;
46222;SDS011;31943;51.410;7.564;2023-03-23T09:29:00;3.67;;;1.15;;
46222;SDS011;31943;51.410;7.564;2023-03-23T09:31:25;3.33;;;1.33;;
46222;SDS011;31943;51.410;7.564;2023-03-23T09:33:53;2.50;;;1.10;;
46222;SDS011;31943;51.410;7.564;2023-03-23T09:36:18;4.40;;;1.30;;
46222;SDS011;31943;51.410;7.564;2023-03-23T09:38:44;3.08;;;1.90;;
46222;SDS011;31943;51.410;7.564;2023-03-23T09:41:12;3.25;;;1.48;;
46222;SDS011;31943;51.410;7.564;2023-03-23T09:43:58;4.22;;;1.52;;
46222;SDS011;31943;51.410;7.564;2023-03-23T09:46:31;4.35;;;1.38;;
46222;SDS011;31943;51.410;7.564;2023-03-23T09:49:17;3.05;;;1.50;;
46222;SDS011;31943;51.410;7.564;2023-03-23T09:51:48;5.10;;;1.40;;
46222;SDS011;31943;51.410;7.564;2023-03-23T09:54:19;4.93;;;1.50;;
46222;SDS011;31943;51.410;7.564;2023-03-23T09:56:46;2.75;;;1.20;;
46222;SDS011;31943;51.410;7.564;2023-03-23T09:59:15;4.57;;;1.30;;
46222;SDS011;31943;51.410;7.564;2023-03-23T10:01:45;4.85;;;1.33;;
46222;SDS011;31943;51.410;7.564;2023-03-23T10:04:18;4.35;;;1.60;;
46222;SDS011;31943;51.410;7.564;2023-03-23T10:06:52;5.05;;;1.40;;
46222;SDS011;31943;51.410;7.564;2023-03-23T10:09:22;5.55;;;1.50;;
46222;SDS011;31943;51.410;7.564;2023-03-23T10:11:50;3.92;;;1.30;;
46222;SDS011;31943;51.410;7.564;2023-03-23T10:14:28;4.78;;;1.50;;
46222;SDS011;31943;51.410;7.564;2023-03-23T10:17:09;3.58;;;1.25;;
46222;SDS011;31943;51.410;7.564;2023-03-23T10:19:42;3.58;;;1.38;;
46222;SDS011;31943;51.410;7.564;2023-03-23T10:22:12;5.25;;;1.40;;
46222;SDS011;31943;51.410;7.564;2023-03-23T10:24:43;3.37;;;1.23;;
46222;SDS011;31943;51.410;7.564;2023-03-23T10:27:18;3.65;;;1.52;;
46222;SDS011;31943;51.410;7.564;2023-03-23T10:29:50;5.28;;;1.35;;
46222;SDS011;31943;51.410;7.564;2023-03-23T10:32:34;6.90;;;1.50;;
46222;SDS011;31943;51.410;7.564;2023-03-23T10:35:09;5.22;;;1.70;;
46222;SDS011;31943;51.410;7.564;2023-03-23T10:37:41;4.68;;;1.20;;
46222;SDS011;31943;51.410;7.564;2023-03-23T10:40:13;4.82;;;1.33;;
46222;SDS011;31943;51.410;7.564;2023-03-23T10:42:41;6.40;;;1.90;;
46222;SDS011;31943;51.410;7.564;2023-03-23T10:45:12;7.43;;;1.70;;
46222;SDS011;31943;51.410;7.564;2023-03-23T10:47:44;5.30;;;1.38;;
46222;SDS011;31943;51.410;7.564;2023-03-23T10:50:15;4.00;;;1.30;;
46222;SDS011;31943;51.410;7.564;2023-03-23T10:52:46;3.38;;;1.20;;
46222;SDS011;31943;51.410;7.564;2023-03-23T10:55:16;4.43;;;1.35;;
46222;SDS011;31943;51.410;7.564;2023-03-23T10:57:44;4.70;;;1.70;;
46222;SDS011;31943;51.410;7.564;2023-03-23T11:00:16;3.55;;;1.30;;
46222;SDS011;31943;51.410;7.564;2023-03-23T11:02:44;3.60;;;1.42;;
46222;SDS011;31943;51.410;7.564;2023-03-23T11:05:15;4.43;;;1.63;;
46222;SDS011;31943;51.410;7.564;2023-03-23T11:07:48;3.85;;;1.30;;
46222;SDS011;31943;51.410;7.564;2023-03-23T11:10:21;5.32;;;1.50;;
46222;SDS011;31943;51.410;7.564;2023-03-23T11:12:48;2.45;;;1.20;;
46222;SDS011;31943;51.410;7.564;2023-03-23T11:15:16;3.85;;;1.33;;
46222;SDS011;31943;51.410;7.564;2023-03-23T11:17:54;2.30;;;1.20;;
46222;SDS011;31943;51.410;7.564;2023-03-23T11:20:22;3.38;;;1.27;;
46222;SDS011;31943;51.410;7.564;2023-03-23T11:22:48;4.63;;;1.40;;
46222;SDS011;31943;51.410;7.564;2023-03-23T11:25:13;2.10;;;1.63;;
46222;SDS011;31943;51.410;7.564;2023-03-23T11:27:39;3.28;;;1.73;;
46222;SDS011;31943;51.410;7.564;2023-03-23T11:30:08;3.80;;;2.10;;
46222;SDS011;31943;51.410;7.564;2023-03-23T11:32:36;3.07;;;1.90;;
46222;SDS011;31943;51.410;7.564;2023-03-23T11:35:03;3.55;;;2.15;;
46222;SDS011;31943;51.410;7.564;2023-03-23T11:37:34;5.22;;;2.33;;
46222;SDS011;31943;51.410;7.564;2023-03-23T11:40:14;4.63;;;2.08;;
46222;SDS011;31943;51.410;7.564;2023-03-23T11:42:42;4.78;;;2.10;;
46222;SDS011;31943;51.410;7.564;2023-03-23T11:45:13;4.53;;;1.88;;
46222;SDS011;31943;51.410;7.564;2023-03-23T11:47:48;2.58;;;1.40;;
46222;SDS011;31943;51.410;7.564;2023-03-23T11:50:21;2.28;;;1.48;;
46222;SDS011;31943;51.410;7.564;2023-03-23T11:52:52;2.42;;;1.35;;
46222;SDS011;31943;51.410;7.564;2023-03-23T11:55:28;6.35;;;1.90;;
46222;SDS011;31943;51.410;7.564;2023-03-23T11:58:12;3.58;;;1.10;;
46222;SDS011;31943;51.410;7.564;2023-03-23T12:00:41;3.17;;;1.60;;
46222;SDS011;31943;51.410;7.564;2023-03-23T12:03:13;3.22;;;1.35;;
46222;SDS011;31943;51.410;7.564;2023-03-23T12:05:43;2.85;;;1.85;;
46222;SDS011;31943;51.410;7.564;2023-03-23T12:08:19;2.90;;;1.42;;
46222;SDS011;31943;51.410;7.564;2023-03-23T12:10:58;2.35;;;1.20;;
46222;SDS011;31943;51.410;7.564;2023-03-23T12:13:38;2.83;;;1.40;;
46222;SDS011;31943;51.410;7.564;2023-03-23T12:16:18;3.13;;;1.27;;
46222;SDS011;31943;51.410;7.564;2023-03-23T12:18:52;1.60;;;1.05;;
46222;SDS011;31943;51.410;7.564;2023-03-23T12:21:24;2.53;;;1.65;;
46222;SDS011;31943;51.410;7.564;2023-03-23T12:24:05;3.13;;;2.47;;
46222;SDS011;31943;51.410;7.564;2023-03-23T12:26:40;3.70;;;2.40;;
46222;SDS011;31943;51.410;7.564;2023-03-23T12:29:25;2.15;;;1.13;;
46222;SDS011;31943;51.410;7.564;2023-03-23T12:32:02;2.90;;;1.63;;
46222;SDS011;31943;51.410;7.564;2023-03-23T12:34:49;1.98;;;1.20;;
46222;SDS011;31943;51.410;7.564;2023-03-23T12:37:24;1.98;;;1.50;;
46222;SDS011;31943;51.410;7.564;2023-03-23T12:40:09;2.47;;;1.52;;
46222;SDS011;31943;51.410;7.564;2023-03-23T12:42:47;3.30;;;1.52;;
46222;SDS011;31943;51.410;7.564;2023-03-23T12:45:22;3.22;;;1.25;;
46222;SDS011;31943;51.410;7.564;2023-03-23T12:47:52;1.60;;;1.20;;
46222;SDS011;31943;51.410;7.564;2023-03-23T12:50:24;1.92;;;1.42;;
46222;SDS011;31943;51.410;7.564;2023-03-23T12:52:56;3.80;;;1.88;;
46222;SDS011;31943;51.410;7.564;2023-03-23T12:55:30;3.28;;;1.50;;
46222;SDS011;31943;51.410;7.564;2023-03-23T12:58:04;3.78;;;1.52;;
46222;SDS011;31943;51.410;7.564;2023-03-23T13:00:35;2.53;;;2.33;;
46222;SDS011;31943;51.410;7.564;2023-03-23T13:05:46;3.42;;;1.88;;
46222;SDS011;31943;51.410;7.564;2023-03-23T13:10:46;4.82;;;3.20;;
46222;SDS011;31943;51.410;7.564;2023-03-23T13:13:14;4.80;;;3.35;;
46222;SDS011;31943;51.410;7.564;2023-03-23T13:15:46;2.95;;;2.20;;
46222;SDS011;31943;51.410;7.564;2023-03-23T13:18:20;4.95;;;2.83;;
46222;SDS011;31943;51.410;7.564;2023-03-23T13:20:57;5.95;;;2.80;;
46222;SDS011;31943;51.410;7.564;2023-03-23T13:23:31;4.55;;;3.35;;
46222;SDS011;31943;51.410;7.564;2023-03-23T13:26:03;3.93;;;3.50;;
46222;SDS011;31943;51.410;7.564;2023-03-23T13:28:33;5.18;;;3.20;;
46222;SDS011;31943;51.410;7.564;2023-03-23T13:31:14;5.43;;;2.72;;
46222;SDS011;31943;51.410;7.564;2023-03-23T13:33:45;4.53;;;3.30;;
46222;SDS011;31943;51.410;7.564;2023-03-23T13:36:14;4.05;;;3.50;;
46222;SDS011;31943;51.410;7.564;2023-03-23T13:38:47;4.95;;;3.30;;
46222;SDS011;31943;51.410;7.564;2023-03-23T13:41:17;5.53;;;3.72;;
46222;SDS011;31943;51.410;7.564;2023-03-23T13:43:44;5.33;;;3.80;;
46222;SDS011;31943;51.410;7.564;2023-03-23T13:46:12;4.65;;;3.70;;
46222;SDS011;31943;51.410;7.564;2023-03-23T13:48:51;5.63;;;3.70;;
46222;SDS011;31943;51.410;7.564;2023-03-23T13:51:47;4.93;;;3.90;;
46222;SDS011;31943;51.410;7.564;2023-03-23T13:54:23;4.57;;;4.07;;
46222;SDS011;31943;51.410;7.564;2023-03-23T13:56:57;5.45;;;4.05;;
46222;SDS011;31943;51.410;7.564;2023-03-23T13:59:32;4.43;;;4.03;;
46222;SDS011;31943;51.410;7.564;2023-03-23T14:05:08;7.20;;;6.40;;
46222;SDS011;31943;51.410;7.564;2023-03-23T14:07:49;8.23;;;7.47;;
46222;SDS011;31943;51.410;7.564;2023-03-23T14:10:17;7.50;;;6.70;;
46222;SDS011;31943;51.410;7.564;2023-03-23T14:12:45;6.45;;;5.70;;
46222;SDS011;31943;51.410;7.564;2023-03-23T14:15:15;6.75;;;5.10;;
46222;SDS011;31943;51.410;7.564;2023-03-23T14:17:43;5.95;;;5.45;;
46222;SDS011;31943;51.410;7.564;2023-03-23T14:20:15;6.85;;;6.10;;
46222;SDS011;31943;51.410;7.564;2023-03-23T14:22:52;6.45;;;5.85;;
46222;SDS011;31943;51.410;7.564;2023-03-23T14:25:20;6.38;;;5.40;;
46222;SDS011;31943;51.410;7.564;2023-03-23T14:27:50;6.20;;;5.60;;
46222;SDS011;31943;51.410;7.564;2023-03-23T14:32:44;5.95;;;5.00;;
46222;SDS011;31943;51.410;7.564;2023-03-23T14:35:12;7.13;;;6.18;;
46222;SDS011;31943;51.410;7.564;2023-03-23T14:37:42;5.60;;;4.72;;
46222;SDS011;31943;51.410;7.564;2023-03-23T14:40:09;5.30;;;4.80;;
46222;SDS011;31943;51.410;7.564;2023-03-23T14:42:42;8.65;;;5.70;;
46222;SDS011;31943;51.410;7.564;2023-03-23T14:45:13;6.43;;;5.47;;
46222;SDS011;31943;51.410;7.564;2023-03-23T14:47:42;5.97;;;4.53;;
46222;SDS011;31943;51.410;7.564;2023-03-23T14:50:22;8.57;;;5.13;;
46222;SDS011;31943;51.410;7.564;2023-03-23T14:52:51;4.53;;;4.00;;
46222;SDS011;31943;51.410;7.564;2023-03-23T14:55:18;5.57;;;3.90;;
46222;SDS011;31943;51.410;7.564;2023-03-23T14:57:45;8.13;;;4.28;;
46222;SDS011;31943;51.410;7.564;2023-03-23T15:00:15;5.00;;;3.42;;
46222;SDS011;31943;51.410;7.564;2023-03-23T15:02:43;6.13;;;3.67;;
46222;SDS011;31943;51.410;7.564;2023-03-23T15:05:13;5.07;;;2.83;;
46222;SDS011;31943;51.410;7.564;2023-03-23T15:07:42;5.18;;;2.70;;
46222;SDS011;31943;51.410;7.564;2023-03-23T15:10:14;3.95;;;2.50;;
46222;SDS011;31943;51.410;7.564;2023-03-23T15:12:44;4.10;;;2.17;;
46222;SDS011;31943;51.410;7.564;2023-03-23T15:15:19;3.10;;;2.47;;
46222;SDS011;31943;51.410;7.564;2023-03-23T15:17:49;3.55;;;2.00;;
46222;SDS011;31943;51.410;7.564;2023-03-23T15:20:21;5.75;;;1.95;;
46222;SDS011;31943;51.410;7.564;2023-03-23T15:22:49;3.88;;;1.70;;